createdAt,value
2023-01-13T00:01:16.442Z,8.40
2023-01-13T00:03:44.634Z,8.41
2023-01-13T00:06:14.793Z,8.42
2023-01-13T00:08:42.273Z,8.39
2023-01-13T00:11:10.663Z,8.39
2023-01-13T00:13:38.901Z,8.43
2023-01-13T00:16:10.409Z,8.40
2023-01-13T00:18:38.096Z,8.41
2023-01-13T00:21:06.852Z,8.37
2023-01-13T00:23:35.834Z,8.40
2023-01-13T00:26:09.832Z,8.32
2023-01-13T00:28:37.442Z,8.30
2023-01-13T00:31:14.119Z,8.28
2023-01-13T00:33:41.965Z,8.21
2023-01-13T00:36:13.214Z,8.11
2023-01-13T00:38:42.970Z,8.08
2023-01-13T00:41:19.049Z,8.08
2023-01-13T00:43:47.281Z,8.12
2023-01-13T00:46:17.189Z,8.04
2023-01-13T00:48:45.622Z,8.03
2023-01-13T00:51:21.418Z,7.99
2023-01-13T00:53:51.685Z,8.02
2023-01-13T00:56:39.308Z,8.04
2023-01-13T00:59:10.537Z,8.08
2023-01-13T01:01:38.327Z,8.09
2023-01-13T01:04:06.484Z,8.03
2023-01-13T01:06:33.952Z,7.97
2023-01-13T01:09:01.574Z,8.00
2023-01-13T01:11:30.998Z,7.98
2023-01-13T01:14:01.081Z,7.95
2023-01-13T01:16:30.881Z,7.95
2023-01-13T01:18:59.490Z,7.88
2023-01-13T01:21:28.289Z,7.88
2023-01-13T01:23:56.122Z,7.89
2023-01-13T01:26:25.491Z,7.91
2023-01-13T01:28:54.069Z,7.94
2023-01-13T01:31:23.800Z,7.95
2023-01-13T01:33:51.974Z,7.94
2023-01-13T01:36:21.094Z,7.93
2023-01-13T01:38:49.651Z,7.97
2023-01-13T01:41:22.900Z,7.96
2023-01-13T01:44:00.051Z,7.94
2023-01-13T01:46:38.786Z,7.98
2023-01-13T01:49:22.248Z,8.01
2023-01-13T01:51:55.964Z,7.99
2023-01-13T01:55:05.232Z,8.03
2023-01-13T01:57:47.602Z,8.08
2023-01-13T02:00:15.331Z,8.07
2023-01-13T02:02:46.462Z,8.08
2023-01-13T02:05:14.203Z,8.04
2023-01-13T02:07:45.043Z,8.08
2023-01-13T02:10:15.872Z,8.07
2023-01-13T02:12:45.215Z,8.08
2023-01-13T02:15:21.158Z,8.09
2023-01-13T02:17:48.535Z,8.12
2023-01-13T02:20:43.635Z,8.16
2023-01-13T02:23:47.852Z,8.21
2023-01-13T02:26:29.516Z,8.24
2023-01-13T02:29:34.154Z,8.21
2023-01-13T02:32:26.453Z,8.21
2023-01-13T02:35:06.525Z,8.26
2023-01-13T02:37:39.203Z,8.31
2023-01-13T02:40:14.997Z,8.36
2023-01-13T02:43:18.838Z,8.36
2023-01-13T02:45:56.235Z,8.37
2023-01-13T02:48:25.465Z,8.35
2023-01-13T02:51:07.823Z,8.33
2023-01-13T02:53:41.610Z,8.32
2023-01-13T02:56:10.263Z,8.35
2023-01-13T02:58:42.037Z,8.37
2023-01-13T03:01:09.739Z,8.40
2023-01-13T03:03:37.321Z,8.39
2023-01-13T03:06:39.327Z,8.38
2023-01-13T03:09:33.084Z,8.35
2023-01-13T03:12:17.890Z,8.31
2023-01-13T03:15:12.119Z,8.34
2023-01-13T03:17:49.949Z,8.27
2023-01-13T03:20:27.592Z,8.31
2023-01-13T03:22:57.956Z,8.35
2023-01-13T03:25:56.428Z,8.41
2023-01-13T03:28:31.916Z,8.46
2023-01-13T03:31:07.131Z,8.43
2023-01-13T03:33:41.664Z,8.47
2023-01-13T03:36:12.629Z,8.48
2023-01-13T03:38:45.817Z,8.48
2023-01-13T03:41:24.999Z,8.48
2023-01-13T03:44:23.723Z,8.49
2023-01-13T03:47:18.175Z,8.52
2023-01-13T03:49:45.519Z,8.49
2023-01-13T03:52:22.718Z,8.54
2023-01-13T03:54:56.929Z,8.50
2023-01-13T03:57:30.597Z,8.51
2023-01-13T04:00:04.193Z,8.59
2023-01-13T04:03:14.724Z,8.57
2023-01-13T04:05:47.686Z,8.59
2023-01-13T04:08:25.478Z,8.59
2023-01-13T04:11:00.437Z,8.61
2023-01-13T04:13:32.480Z,8.60
2023-01-13T04:16:00.649Z,8.59
2023-01-13T04:18:33.245Z,8.61
2023-01-13T04:21:01.963Z,8.62
2023-01-13T04:23:29.531Z,8.63
2023-01-13T04:25:57.317Z,8.64
2023-01-13T04:28:25.242Z,8.61
2023-01-13T04:30:52.810Z,8.64
2023-01-13T04:33:20.533Z,8.68
2023-01-13T04:35:48.840Z,8.66
2023-01-13T04:38:18.470Z,8.61
2023-01-13T04:40:46.201Z,8.62
2023-01-13T04:43:15.870Z,8.64
2023-01-13T04:45:44.046Z,8.64
2023-01-13T04:48:11.961Z,8.62
2023-01-13T04:50:39.559Z,8.60
2023-01-13T04:53:07.398Z,8.58
2023-01-13T04:55:35.468Z,8.63
2023-01-13T04:58:04.893Z,8.60
2023-01-13T05:00:32.688Z,8.59
2023-01-13T05:03:00.534Z,8.64
2023-01-13T05:05:29.650Z,8.60
2023-01-13T05:07:57.949Z,8.59
2023-01-13T05:10:25.965Z,8.57
2023-01-13T05:13:12.317Z,8.54
2023-01-13T05:15:59.698Z,8.59
2023-01-13T05:18:29.791Z,8.60
2023-01-13T05:20:57.302Z,8.62
2023-01-13T05:23:43.540Z,8.64
2023-01-13T05:26:11.041Z,8.66
2023-01-13T05:28:38.578Z,8.66
2023-01-13T05:31:06.328Z,8.71
2023-01-13T05:33:35.776Z,8.73
2023-01-13T05:36:04.101Z,8.71
2023-01-13T05:38:31.699Z,8.73
2023-01-13T05:41:18.873Z,8.74
2023-01-13T05:43:46.531Z,8.72
2023-01-13T05:50:21.100Z,8.70
2023-01-13T05:52:48.928Z,8.63
2023-01-13T05:55:16.596Z,8.65
2023-01-13T05:57:44.220Z,8.65
2023-01-13T06:00:12.210Z,8.67
2023-01-13T06:02:39.884Z,8.63
2023-01-13T06:05:07.934Z,8.70
2023-01-13T06:07:35.520Z,8.69
2023-01-13T06:10:03.029Z,8.60
2023-01-13T06:12:30.561Z,8.61
2023-01-13T06:14:58.060Z,8.61
2023-01-13T06:17:25.560Z,8.60
2023-01-13T06:19:53.030Z,8.65
2023-01-13T06:22:35.748Z,8.63
2023-01-13T06:25:03.942Z,8.60
2023-01-13T06:27:31.507Z,8.59
2023-01-13T06:29:59.020Z,8.62
2023-01-13T06:32:32.767Z,8.66
2023-01-13T06:35:08.296Z,8.69
2023-01-13T06:37:37.366Z,8.65
2023-01-13T06:40:07.553Z,8.64
2023-01-13T06:42:55.493Z,8.65
2023-01-13T06:45:25.483Z,8.64
2023-01-13T06:47:54.664Z,8.65
2023-01-13T06:50:22.243Z,8.66
2023-01-13T06:52:49.712Z,8.67
2023-01-13T06:55:17.261Z,8.71
2023-01-13T06:57:52.908Z,8.72
2023-01-13T07:00:21.818Z,8.72
2023-01-13T07:02:50.060Z,8.78
2023-01-13T07:05:18.868Z,8.79
2023-01-13T07:07:46.579Z,8.77
2023-01-13T07:10:22.379Z,8.73
2023-01-13T07:13:08.841Z,8.71
2023-01-13T07:15:36.495Z,8.76
2023-01-13T07:18:04.129Z,8.78
2023-01-13T07:20:31.934Z,8.81
2023-01-13T07:22:59.554Z,8.81
2023-01-13T07:25:27.173Z,8.79
2023-01-13T07:27:57.615Z,8.79
2023-01-13T07:30:25.087Z,8.80
2023-01-13T07:32:52.632Z,8.80
2023-01-13T07:35:23.189Z,8.81
2023-01-13T07:37:50.820Z,8.83
2023-01-13T07:40:18.327Z,8.84
2023-01-13T07:43:04.469Z,8.80
2023-01-13T07:45:31.950Z,8.85
2023-01-13T07:47:59.452Z,8.86
2023-01-13T07:50:26.980Z,8.88
2023-01-13T07:52:58.087Z,8.94
2023-01-13T07:55:25.716Z,9.00
2023-01-13T07:57:53.160Z,9.13
2023-01-13T08:00:21.220Z,9.20
2023-01-13T08:02:48.753Z,9.28
2023-01-13T08:05:16.738Z,9.35
2023-01-13T08:07:44.259Z,9.44
2023-01-13T08:10:12.065Z,9.42
2023-01-13T08:12:58.335Z,9.37
2023-01-13T08:15:25.901Z,9.38
2023-01-13T08:17:53.340Z,9.38
2023-01-13T08:20:20.913Z,9.47
2023-01-13T08:22:48.453Z,9.45
2023-01-13T08:25:16.023Z,9.37
2023-01-13T08:27:43.519Z,9.39
2023-01-13T08:30:11.578Z,9.36
2023-01-13T08:32:39.082Z,9.43
2023-01-13T08:35:07.934Z,9.46
2023-01-13T08:37:35.419Z,9.49
2023-01-13T08:40:02.997Z,9.47
2023-01-13T08:42:31.178Z,9.46
2023-01-13T08:44:59.018Z,9.46
2023-01-13T08:47:29.973Z,9.41
2023-01-13T08:49:57.591Z,9.42
2023-01-13T08:52:25.318Z,9.50
2023-01-13T08:54:52.881Z,9.39
2023-01-13T08:57:20.622Z,9.22
2023-01-13T08:59:48.261Z,9.10
2023-01-13T09:02:18.861Z,8.99
2023-01-13T09:04:48.283Z,8.92
2023-01-13T09:07:16.732Z,8.83
2023-01-13T09:09:44.384Z,8.76
2023-01-13T09:12:32.802Z,8.77
2023-01-13T09:15:00.968Z,8.99
2023-01-13T09:17:28.531Z,9.16
2023-01-13T09:19:55.994Z,9.30
2023-01-13T09:22:27.145Z,9.35
2023-01-13T09:24:55.813Z,9.42
2023-01-13T09:27:23.779Z,9.56
2023-01-13T09:29:51.330Z,9.78
2023-01-13T09:32:18.846Z,10.05
2023-01-13T09:35:01.566Z,10.00
2023-01-13T09:37:34.888Z,10.38
2023-01-13T09:40:08.048Z,10.46
2023-01-13T09:43:19.783Z,10.66
2023-01-13T09:46:30.801Z,10.46
2023-01-13T09:48:59.312Z,10.19
2023-01-13T09:51:48.992Z,10.06
2023-01-13T09:54:32.316Z,9.77
2023-01-13T09:57:00.105Z,9.76
2023-01-13T09:59:34.709Z,9.60
2023-01-13T10:02:08.137Z,9.43
2023-01-13T10:04:35.742Z,9.14
2023-01-13T10:07:05.980Z,8.73
2023-01-13T10:09:49.439Z,8.32
2023-01-13T10:12:41.385Z,8.11
2023-01-13T10:15:17.794Z,7.92
2023-01-13T10:17:56.143Z,7.79
2023-01-13T10:20:30.456Z,7.69
2023-01-13T10:23:39.095Z,7.47
2023-01-13T10:26:34.120Z,7.38
2023-01-13T10:29:01.686Z,7.23
2023-01-13T10:31:29.272Z,7.21
2023-01-13T10:34:01.719Z,7.18
2023-01-13T10:36:29.311Z,7.15
2023-01-13T10:39:10.100Z,7.05
2023-01-13T10:41:40.663Z,7.08
2023-01-13T10:44:16.695Z,7.09
2023-01-13T10:46:56.742Z,7.05
2023-01-13T10:49:36.348Z,7.04
2023-01-13T10:52:23.817Z,7.21
2023-01-13T10:54:53.087Z,7.23
2023-01-13T10:57:25.757Z,7.32
2023-01-13T10:59:54.895Z,7.30
2023-01-13T11:02:36.102Z,7.25
2023-01-13T11:05:24.661Z,7.17
2023-01-13T11:07:55.095Z,7.18
2023-01-13T11:10:27.606Z,7.19
2023-01-13T11:13:17.172Z,7.25
2023-01-13T11:15:56.082Z,7.32
2023-01-13T11:18:32.524Z,7.32
2023-01-13T11:21:01.721Z,7.32
2023-01-13T11:23:37.639Z,7.28
2023-01-13T11:26:16.541Z,7.31
2023-01-13T11:29:08.340Z,7.33
2023-01-13T11:31:51.655Z,7.38
2023-01-13T11:34:24.909Z,7.45
2023-01-13T11:36:55.576Z,7.49
2023-01-13T11:39:54.056Z,7.47
2023-01-13T11:42:21.487Z,7.49
2023-01-13T11:45:19.963Z,7.52
2023-01-13T11:47:51.311Z,7.54
2023-01-13T11:50:40.649Z,7.56
2023-01-13T11:53:26.862Z,7.59
2023-01-13T11:55:57.327Z,7.62
2023-01-13T11:58:51.192Z,7.63
2023-01-13T12:02:00.462Z,7.59
2023-01-13T12:04:46.652Z,7.64
2023-01-13T12:07:51.718Z,7.64
2023-01-13T12:10:58.258Z,7.65
2023-01-13T12:13:34.791Z,7.59
2023-01-13T12:16:11.535Z,7.63
2023-01-13T12:19:16.322Z,7.57
2023-01-13T12:22:02.378Z,7.59
2023-01-13T12:24:38.304Z,7.75
2023-01-13T12:27:38.093Z,7.78
2023-01-13T12:30:22.442Z,7.99
2023-01-13T12:32:52.677Z,8.18
2023-01-13T12:35:39.695Z,8.33
2023-01-13T12:38:35.715Z,8.32
2023-01-13T12:41:29.666Z,8.20
2023-01-13T12:44:16.681Z,7.91
2023-01-13T12:46:50.598Z,7.78
2023-01-13T12:49:19.754Z,7.85
2023-01-13T12:51:52.927Z,7.86
2023-01-13T12:54:41.655Z,7.86
2023-01-13T12:57:22.037Z,8.00
2023-01-13T13:00:04.960Z,8.08
2023-01-13T13:02:36.065Z,8.14
2023-01-13T13:05:24.048Z,7.99
2023-01-13T13:08:18.891Z,7.99
2023-01-13T13:11:34.303Z,8.05
2023-01-13T13:14:04.261Z,8.20
2023-01-13T13:16:31.959Z,8.23
2023-01-13T13:19:17.984Z,8.21
2023-01-13T13:22:13.536Z,8.23
2023-01-13T13:24:43.210Z,8.19
2023-01-13T13:27:26.433Z,8.02
2023-01-13T13:30:04.196Z,7.75
2023-01-13T13:32:55.805Z,7.64
2023-01-13T13:35:29.320Z,7.54
2023-01-13T13:38:24.490Z,7.40
2023-01-13T13:41:10.659Z,7.37
2023-01-13T13:44:03.985Z,7.38
2023-01-13T13:46:47.276Z,7.38
2023-01-13T13:49:34.469Z,7.39
2023-01-13T13:52:12.389Z,7.43
2023-01-13T13:54:43.450Z,7.40
2023-01-13T13:57:39.863Z,7.41
2023-01-13T14:00:23.251Z,7.43
2023-01-13T14:03:03.102Z,7.38
2023-01-13T14:05:35.688Z,7.31
2023-01-13T14:08:17.249Z,7.27
2023-01-13T14:10:46.400Z,7.31
2023-01-13T14:13:23.882Z,7.26
2023-01-13T14:16:03.489Z,7.17
2023-01-13T14:18:45.127Z,7.16
2023-01-13T14:21:20.081Z,7.13
2023-01-13T14:24:00.535Z,7.06
2023-01-13T14:26:30.841Z,7.02
2023-01-13T14:29:02.087Z,7.02
2023-01-13T14:31:31.661Z,6.96
2023-01-13T14:34:03.450Z,6.94
2023-01-13T14:36:51.469Z,6.89
2023-01-13T14:39:18.906Z,6.90
2023-01-13T14:41:48.342Z,6.85
2023-01-13T14:44:36.119Z,6.81
2023-01-13T14:47:19.645Z,6.76
2023-01-13T14:50:19.421Z,6.65
2023-01-13T14:52:49.698Z,6.58
2023-01-13T14:55:25.125Z,6.49
2023-01-13T14:57:52.814Z,6.46
2023-01-13T15:00:22.522Z,6.48
2023-01-13T15:02:53.637Z,6.49
2023-01-13T15:05:23.797Z,6.45
2023-01-13T15:08:11.259Z,6.32
2023-01-13T15:10:51.516Z,6.25
2023-01-13T15:13:41.176Z,6.15
2023-01-13T15:16:33.837Z,6.08
2023-01-13T15:19:02.981Z,6.10
2023-01-13T15:21:30.414Z,6.13
2023-01-13T15:23:57.932Z,6.15
2023-01-13T15:26:28.066Z,6.15
2023-01-13T15:28:57.759Z,6.15
2023-01-13T15:31:26.062Z,6.11
2023-01-13T15:33:54.268Z,6.06
2023-01-13T15:36:31.249Z,6.05
2023-01-13T15:39:00.163Z,6.05
2023-01-13T15:41:46.533Z,5.98
2023-01-13T15:44:34.773Z,5.92
2023-01-13T15:47:06.356Z,5.87
2023-01-13T15:49:43.757Z,5.86
2023-01-13T15:52:21.657Z,5.82
2023-01-13T15:54:50.354Z,5.78
2023-01-13T15:57:30.649Z,5.74
2023-01-13T16:00:00.942Z,5.67
2023-01-13T16:02:29.850Z,5.62
2023-01-13T16:04:57.595Z,5.57
2023-01-13T16:07:25.796Z,5.59
2023-01-13T16:09:53.752Z,5.59
2023-01-13T16:12:21.709Z,5.55
2023-01-13T16:14:49.306Z,5.52
2023-01-13T16:17:19.913Z,5.54
2023-01-13T16:19:47.879Z,5.50
2023-01-13T16:22:16.768Z,5.45
2023-01-13T16:24:44.644Z,5.37
2023-01-13T16:27:21.156Z,5.33
2023-01-13T16:29:49.690Z,5.28
2023-01-13T16:32:17.267Z,5.30
2023-01-13T16:34:44.857Z,5.33
2023-01-13T16:37:26.815Z,5.37
2023-01-13T16:39:55.159Z,5.43
2023-01-13T16:42:23.003Z,5.53
2023-01-13T16:44:51.989Z,5.56
2023-01-13T16:47:19.584Z,5.60
2023-01-13T16:49:47.521Z,5.61
2023-01-13T16:52:15.647Z,5.60
2023-01-13T16:54:43.168Z,5.56
2023-01-13T16:57:14.318Z,5.61
2023-01-13T16:59:41.926Z,5.61
2023-01-13T17:02:15.322Z,5.61
2023-01-13T17:04:43.595Z,5.62
2023-01-13T17:07:16.756Z,5.65
2023-01-13T17:09:44.317Z,5.66
2023-01-13T17:12:11.902Z,5.62
2023-01-13T17:14:40.178Z,5.55
2023-01-13T17:17:21.048Z,5.45
2023-01-13T17:19:48.653Z,5.42
2023-01-13T17:22:16.144Z,5.45
2023-01-13T17:24:43.572Z,5.43
2023-01-13T17:27:11.233Z,5.37
2023-01-13T17:29:39.030Z,5.32
2023-01-13T17:32:06.601Z,5.14
2023-01-13T17:34:34.133Z,5.14
2023-01-13T17:37:01.578Z,5.14
2023-01-13T17:39:29.014Z,5.11
2023-01-13T17:41:56.494Z,5.07
2023-01-13T17:44:24.254Z,5.07
2023-01-13T17:46:51.754Z,5.08
2023-01-13T17:49:21.951Z,5.03
2023-01-13T17:51:51.228Z,4.96
2023-01-13T17:54:19.302Z,4.97
2023-01-13T17:56:47.366Z,4.94
2023-01-13T17:59:17.656Z,4.93
2023-01-13T18:01:45.808Z,4.90
2023-01-13T18:04:18.368Z,4.88
2023-01-13T18:06:46.357Z,4.88
2023-01-13T18:09:14.045Z,4.92
2023-01-13T18:11:42.846Z,4.99
2023-01-13T18:14:11.508Z,5.03
2023-01-13T18:16:39.318Z,5.05
2023-01-13T18:19:25.946Z,5.09
2023-01-13T18:22:12.184Z,5.15
2023-01-13T18:24:58.261Z,5.23
2023-01-13T18:27:32.425Z,5.26
2023-01-13T18:30:01.485Z,5.27
2023-01-13T18:32:32.787Z,5.33
2023-01-13T18:35:07.107Z,5.33
2023-01-13T18:37:40.458Z,5.36
2023-01-13T18:40:10.785Z,5.39
2023-01-13T18:42:55.071Z,5.42
2023-01-13T18:45:28.399Z,5.45
2023-01-13T18:47:58.530Z,5.39
2023-01-13T18:50:27.235Z,5.45
2023-01-13T18:52:55.183Z,5.43
2023-01-13T18:55:23.677Z,5.40
2023-01-13T18:57:51.965Z,5.41
2023-01-13T19:00:21.292Z,5.39
2023-01-13T19:02:50.851Z,5.43
2023-01-13T19:05:18.689Z,5.44
2023-01-13T19:07:51.031Z,5.38
2023-01-13T19:10:19.180Z,5.42
2023-01-13T19:12:46.594Z,5.46
2023-01-13T19:15:14.185Z,5.43
2023-01-13T19:17:41.803Z,5.39
2023-01-13T19:20:11.375Z,5.48
2023-01-13T19:22:39.029Z,5.51
2023-01-13T19:25:06.861Z,5.45
2023-01-13T19:27:34.405Z,5.42
2023-01-13T19:30:02.087Z,5.41
2023-01-13T19:32:30.987Z,5.38
2023-01-13T19:34:59.839Z,5.39
2023-01-13T19:37:31.697Z,5.37
2023-01-13T19:39:59.745Z,5.28
2023-01-13T19:42:46.213Z,5.20
2023-01-13T19:45:27.522Z,5.15
2023-01-13T19:47:57.139Z,5.14
2023-01-13T19:50:25.494Z,5.13
2023-01-13T19:52:53.063Z,5.09
2023-01-13T19:55:20.699Z,5.08
2023-01-13T19:57:48.240Z,5.15
2023-01-13T20:00:20.555Z,5.16
2023-01-13T20:02:49.808Z,5.15
2023-01-13T20:05:22.488Z,5.11
2023-01-13T20:07:51.143Z,5.13
2023-01-13T20:10:20.909Z,5.15
2023-01-13T20:12:48.431Z,5.15
2023-01-13T20:15:16.095Z,5.10
2023-01-13T20:17:43.684Z,5.12
2023-01-13T20:20:12.197Z,5.20
2023-01-13T20:22:40.001Z,5.19
2023-01-13T20:25:08.599Z,5.18
2023-01-13T20:27:36.636Z,5.20
2023-01-13T20:30:05.825Z,5.13
2023-01-13T20:32:33.287Z,5.11
2023-01-13T20:35:00.719Z,5.05
2023-01-13T20:37:28.210Z,5.06
2023-01-13T20:39:58.159Z,5.02
2023-01-13T20:42:44.384Z,4.98
2023-01-13T20:45:17.480Z,5.03
2023-01-13T20:47:45.904Z,5.07
2023-01-13T20:50:14.006Z,5.09
2023-01-13T20:52:41.643Z,5.13
2023-01-13T20:55:10.090Z,5.07
2023-01-13T20:57:37.580Z,5.14
2023-01-13T21:00:05.995Z,5.10
2023-01-13T21:02:33.616Z,5.07
2023-01-13T21:05:01.433Z,5.09
2023-01-13T21:07:28.865Z,5.13
2023-01-13T21:09:57.505Z,5.10
2023-01-13T21:12:43.387Z,5.11
2023-01-13T21:15:17.845Z,5.07
2023-01-13T21:18:05.579Z,5.09
2023-01-13T21:20:35.017Z,5.16
2023-01-13T21:23:04.051Z,5.20
2023-01-13T21:25:34.567Z,5.27
2023-01-13T21:28:11.501Z,5.37
2023-01-13T21:30:39.703Z,5.45
2023-01-13T21:33:07.368Z,5.45
2023-01-13T21:35:38.101Z,5.46
2023-01-13T21:38:05.640Z,5.45
2023-01-13T21:40:33.168Z,5.48
2023-01-13T21:43:19.422Z,5.51
2023-01-13T21:46:05.780Z,5.56
2023-01-13T21:48:33.271Z,5.57
2023-01-13T21:51:01.541Z,5.64
2023-01-13T21:53:29.133Z,5.69
2023-01-13T21:55:56.567Z,5.68
2023-01-13T21:58:24.119Z,5.66
2023-01-13T22:00:51.586Z,5.62
2023-01-13T22:03:20.141Z,5.59
2023-01-13T22:05:54.646Z,5.62
2023-01-13T22:08:22.267Z,5.61
2023-01-13T22:10:59.496Z,5.62
2023-01-13T22:13:47.741Z,5.67
2023-01-13T22:16:16.138Z,5.67
2023-01-13T22:18:43.672Z,5.62
2023-01-13T22:21:11.399Z,5.55
2023-01-13T22:23:38.925Z,5.51
2023-01-13T22:26:08.327Z,5.41
2023-01-13T22:28:45.157Z,5.37
2023-01-13T22:31:19.098Z,5.31
2023-01-13T22:33:48.050Z,5.31
2023-01-13T22:36:16.365Z,5.26
2023-01-13T22:38:44.530Z,5.28
2023-01-13T22:41:12.046Z,5.34
2023-01-13T22:43:41.079Z,5.37
2023-01-13T22:46:11.063Z,5.37
2023-01-13T22:48:40.032Z,5.36
2023-01-13T22:51:10.090Z,5.41
2023-01-13T22:53:38.387Z,5.42
2023-01-13T22:56:06.908Z,5.49
2023-01-13T22:58:34.470Z,5.56
2023-01-13T23:01:14.166Z,5.56
2023-01-13T23:03:42.465Z,5.60
2023-01-13T23:06:10.060Z,5.62
2023-01-13T23:08:37.908Z,5.60
2023-01-13T23:11:08.698Z,5.56
2023-01-13T23:13:38.063Z,5.57
2023-01-13T23:16:16.604Z,5.51
2023-01-13T23:18:50.660Z,5.50
2023-01-13T23:21:33.450Z,5.42
2023-01-13T23:24:00.956Z,5.35
2023-01-13T23:26:29.325Z,5.21
2023-01-13T23:29:01.597Z,5.17
2023-01-13T23:31:29.541Z,5.14
2023-01-13T23:33:57.034Z,5.06
2023-01-13T23:36:26.332Z,5.01
2023-01-13T23:38:54.603Z,4.96
2023-01-13T23:41:24.534Z,4.88
2023-01-13T23:43:57.494Z,4.81
2023-01-13T23:46:25.985Z,4.84
2023-01-13T23:48:55.440Z,4.86
2023-01-13T23:51:23.577Z,4.95
2023-01-13T23:53:51.329Z,4.91
2023-01-13T23:56:27.817Z,4.87
2023-01-13T23:58:56.289Z,4.78
